createdAt,value
2024-01-21T00:01:43.019Z,13.50
2024-01-21T00:04:13.549Z,11.03
2024-01-21T00:06:42.582Z,11.20
2024-01-21T00:09:12.965Z,12.73
2024-01-21T00:11:41.575Z,13.00
2024-01-21T00:14:09.941Z,10.57
2024-01-21T00:16:40.457Z,12.97
2024-01-21T00:19:08.870Z,11.47
2024-01-21T00:21:37.203Z,12.13
2024-01-21T00:24:06.445Z,11.93
2024-01-21T00:26:36.480Z,12.67
2024-01-21T00:29:04.749Z,11.33
2024-01-21T00:31:35.480Z,11.77
2024-01-21T00:34:04.176Z,10.03
2024-01-21T00:36:32.544Z,10.23
2024-01-21T00:39:01.136Z,11.17
2024-01-21T00:41:30.029Z,11.17
2024-01-21T00:43:59.681Z,11.23
2024-01-21T00:46:28.157Z,9.27
2024-01-21T00:49:02.722Z,9.57
2024-01-21T00:51:31.135Z,8.80
2024-01-21T00:53:59.422Z,8.20
2024-01-21T00:56:27.953Z,9.87
2024-01-21T00:58:56.234Z,10.03
2024-01-21T01:01:26.140Z,9.77
2024-01-21T01:03:59.011Z,8.67
2024-01-21T01:06:28.232Z,9.27
2024-01-21T01:08:57.135Z,11.20
2024-01-21T01:11:26.232Z,9.40
2024-01-21T01:13:54.518Z,9.83
2024-01-21T01:16:23.630Z,8.47
2024-01-21T01:18:53.761Z,9.17
2024-01-21T01:21:22.275Z,10.30
2024-01-21T01:23:51.152Z,9.50
2024-01-21T01:26:20.135Z,10.47
2024-01-21T01:28:48.549Z,10.60
2024-01-21T01:31:19.509Z,8.90
2024-01-21T01:33:48.509Z,10.03
2024-01-21T01:36:18.367Z,8.97
2024-01-21T01:38:46.918Z,8.37
2024-01-21T01:41:15.360Z,9.40
2024-01-21T01:43:43.670Z,9.00
2024-01-21T01:46:12.978Z,8.63
2024-01-21T01:48:41.536Z,10.23
2024-01-21T01:51:10.832Z,9.70
2024-01-21T01:53:40.499Z,10.33
2024-01-21T01:56:10.123Z,9.83
2024-01-21T01:58:40.706Z,8.33
2024-01-21T02:01:09.866Z,8.83
2024-01-21T02:03:38.567Z,9.43
2024-01-21T02:06:08.468Z,11.57
2024-01-21T02:08:36.956Z,9.67
2024-01-21T02:11:06.775Z,8.97
2024-01-21T02:13:35.181Z,8.87
2024-01-21T02:16:04.590Z,9.00
2024-01-21T02:18:34.758Z,8.10
2024-01-21T02:21:03.184Z,8.73
2024-01-21T02:23:33.010Z,9.10
2024-01-21T02:26:01.448Z,8.33
2024-01-21T02:28:29.765Z,8.20
2024-01-21T02:30:58.252Z,9.47
2024-01-21T02:33:27.607Z,9.87
2024-01-21T02:35:56.156Z,10.50
2024-01-21T02:38:24.744Z,8.73
2024-01-21T02:40:54.499Z,8.20
2024-01-21T02:43:22.825Z,9.33
2024-01-21T02:45:51.332Z,8.10
2024-01-21T02:48:19.814Z,8.83
2024-01-21T02:50:48.463Z,9.30
2024-01-21T02:53:16.737Z,9.73
2024-01-21T02:55:45.332Z,8.20
2024-01-21T02:58:15.022Z,10.07
2024-01-21T03:00:43.552Z,9.83
2024-01-21T03:03:12.110Z,8.67
2024-01-21T03:05:50.552Z,8.83
2024-01-21T03:08:28.529Z,7.37
2024-01-21T03:10:56.949Z,9.03
2024-01-21T03:13:26.586Z,8.37
2024-01-21T03:15:55.727Z,7.10
2024-01-21T03:18:24.378Z,9.63
2024-01-21T03:20:53.197Z,8.43
2024-01-21T03:23:21.490Z,7.90
2024-01-21T03:25:49.899Z,10.03
2024-01-21T03:28:24.246Z,7.87
2024-01-21T03:30:54.170Z,7.43
2024-01-21T03:33:23.515Z,7.33
2024-01-21T03:35:52.081Z,7.33
2024-01-21T03:38:20.620Z,9.57
2024-01-21T03:40:48.940Z,8.20
2024-01-21T03:43:19.069Z,9.07
2024-01-21T03:45:47.645Z,7.60
2024-01-21T03:48:17.298Z,10.27
2024-01-21T03:50:45.949Z,7.33
2024-01-21T03:53:14.219Z,8.53
2024-01-21T03:55:42.707Z,8.23
2024-01-21T03:58:11.293Z,9.57
2024-01-21T04:00:39.783Z,8.37
2024-01-21T04:03:08.237Z,7.27
2024-01-21T04:05:38.084Z,7.70
2024-01-21T04:08:07.528Z,9.30
2024-01-21T04:10:35.967Z,9.00
2024-01-21T04:13:07.478Z,8.97
2024-01-21T04:15:36.885Z,7.90
2024-01-21T04:18:06.161Z,8.70
2024-01-21T04:20:34.609Z,8.40
2024-01-21T04:23:04.391Z,8.80
2024-01-21T04:25:32.972Z,8.87
2024-01-21T04:28:01.646Z,8.70
2024-01-21T04:30:31.124Z,7.97
2024-01-21T04:33:01.086Z,7.73
2024-01-21T04:35:29.434Z,9.20
2024-01-21T04:37:57.758Z,6.93
2024-01-21T04:40:27.656Z,8.53
2024-01-21T04:42:56.131Z,7.93
2024-01-21T04:45:24.512Z,8.07
2024-01-21T04:47:52.863Z,7.23
2024-01-21T04:50:21.332Z,8.00
2024-01-21T04:52:48.769Z,7.20
2024-01-21T04:55:17.263Z,6.90
2024-01-21T04:57:47.847Z,6.70
2024-01-21T05:00:18.154Z,6.47
2024-01-21T05:02:46.740Z,6.07
2024-01-21T05:05:15.235Z,7.17
2024-01-21T05:07:46.157Z,7.13
2024-01-21T05:10:14.870Z,7.27
2024-01-21T05:12:43.224Z,6.47
2024-01-21T05:15:13.893Z,6.90
2024-01-21T05:17:42.215Z,7.20
2024-01-21T05:20:12.659Z,9.03
2024-01-21T05:22:41.122Z,6.50
2024-01-21T05:25:09.495Z,7.60
2024-01-21T05:27:38.196Z,5.73
2024-01-21T05:30:08.684Z,5.90
2024-01-21T05:32:38.345Z,6.80
2024-01-21T05:35:08.726Z,7.77
2024-01-21T05:37:37.170Z,6.60
2024-01-21T05:40:06.627Z,6.50
2024-01-21T05:42:35.168Z,6.43
2024-01-21T05:45:05.082Z,8.60
2024-01-21T05:47:33.665Z,8.03
2024-01-21T05:50:03.964Z,7.23
2024-01-21T05:52:34.256Z,9.20
2024-01-21T05:55:02.660Z,7.30
2024-01-21T05:57:31.009Z,8.60
2024-01-21T05:59:59.653Z,8.60
2024-01-21T06:02:27.960Z,7.97
2024-01-21T06:04:56.662Z,8.70
2024-01-21T06:07:26.489Z,8.27
2024-01-21T06:09:55.089Z,8.90
2024-01-21T06:12:23.539Z,8.67
2024-01-21T06:14:51.824Z,8.43
2024-01-21T06:17:20.252Z,8.23
2024-01-21T06:19:48.572Z,8.80
2024-01-21T06:22:16.972Z,8.53
2024-01-21T06:24:46.682Z,11.03
2024-01-21T06:27:15.209Z,8.40
2024-01-21T06:29:46.867Z,8.70
2024-01-21T06:32:15.150Z,9.17
2024-01-21T06:34:43.750Z,9.67
2024-01-21T06:37:12.102Z,10.80
2024-01-21T06:39:40.500Z,11.20
2024-01-21T06:42:10.301Z,10.97
2024-01-21T06:44:38.532Z,10.80
2024-01-21T06:47:06.956Z,10.43
2024-01-21T06:49:35.396Z,10.47
2024-01-21T06:52:05.781Z,10.80
2024-01-21T06:54:34.093Z,11.23
2024-01-21T06:57:02.396Z,11.03
2024-01-21T06:59:32.095Z,10.60
2024-01-21T07:02:00.569Z,11.17
2024-01-21T07:04:38.941Z,10.83
2024-01-21T07:07:08.446Z,10.03
2024-01-21T07:09:42.858Z,9.10
2024-01-21T07:12:11.234Z,10.63
2024-01-21T07:14:40.860Z,11.20
2024-01-21T07:17:09.137Z,12.27
2024-01-21T07:19:37.509Z,10.30
2024-01-21T07:22:06.800Z,10.33
2024-01-21T07:24:35.077Z,9.77
2024-01-21T07:27:04.280Z,10.70
2024-01-21T07:29:32.570Z,10.70
2024-01-21T07:32:02.233Z,9.23
2024-01-21T07:34:31.464Z,10.10
2024-01-21T07:37:00.508Z,10.93
2024-01-21T07:39:28.859Z,10.17
2024-01-21T07:41:57.204Z,11.83
2024-01-21T07:44:25.978Z,11.57
2024-01-21T07:46:54.615Z,12.53
2024-01-21T07:49:24.628Z,12.03
2024-01-21T07:51:53.539Z,11.47
2024-01-21T07:54:22.013Z,13.20
2024-01-21T07:56:50.321Z,13.17
2024-01-21T07:59:19.277Z,12.00
2024-01-21T08:01:47.751Z,13.33
2024-01-21T08:04:17.244Z,11.60
2024-01-21T08:06:46.994Z,13.57
2024-01-21T08:09:20.094Z,11.80
2024-01-21T08:11:49.325Z,15.07
2024-01-21T08:14:17.926Z,13.47
2024-01-21T08:16:46.174Z,13.37
2024-01-21T08:19:16.495Z,16.83
2024-01-21T08:21:46.652Z,19.60
2024-01-21T08:24:15.223Z,15.87
2024-01-21T08:26:43.764Z,17.70
2024-01-21T08:29:12.071Z,16.23
2024-01-21T08:31:45.205Z,16.73
2024-01-21T08:34:13.996Z,17.30
2024-01-21T08:36:43.253Z,17.07
2024-01-21T08:39:13.377Z,16.97
2024-01-21T08:41:41.634Z,12.93
2024-01-21T08:44:10.086Z,13.77
2024-01-21T08:46:39.102Z,13.00
2024-01-21T08:49:07.648Z,14.03
2024-01-21T08:51:36.046Z,12.03
2024-01-21T08:54:04.849Z,11.60
2024-01-21T08:56:36.531Z,14.03
2024-01-21T08:59:05.006Z,13.23
2024-01-21T09:01:33.445Z,13.80
2024-01-21T09:04:03.722Z,11.20
2024-01-21T09:06:34.617Z,11.87
2024-01-21T09:09:03.272Z,12.13
2024-01-21T09:11:32.022Z,12.83
2024-01-21T09:14:01.815Z,12.67
2024-01-21T09:16:30.834Z,13.03
2024-01-21T09:18:59.938Z,12.63
2024-01-21T09:21:33.408Z,12.00
2024-01-21T09:24:06.184Z,12.60
2024-01-21T09:26:35.188Z,12.80
2024-01-21T09:29:05.304Z,14.50
2024-01-21T09:31:35.767Z,12.87
2024-01-21T09:34:04.699Z,12.27
2024-01-21T09:36:35.517Z,12.73
2024-01-21T09:39:06.143Z,11.80
2024-01-21T09:41:40.627Z,11.77
2024-01-21T09:44:13.412Z,12.87
2024-01-21T09:46:41.765Z,14.17
2024-01-21T09:49:12.919Z,12.70
2024-01-21T09:51:44.722Z,14.20
2024-01-21T09:54:13.494Z,13.20
2024-01-21T09:56:44.390Z,12.53
2024-01-21T09:59:15.934Z,13.63
2024-01-21T10:01:43.500Z,18.23
2024-01-21T10:04:12.951Z,11.57
2024-01-21T10:06:41.565Z,13.20
2024-01-21T10:09:14.152Z,11.87
2024-01-21T10:11:42.916Z,12.17
2024-01-21T10:14:11.559Z,11.70
2024-01-21T10:16:44.998Z,11.80
2024-01-21T10:19:17.142Z,10.57
2024-01-21T10:21:45.811Z,12.87
2024-01-21T10:24:14.189Z,10.60
2024-01-21T10:26:44.993Z,10.80
2024-01-21T10:29:13.282Z,12.23
2024-01-21T10:31:44.048Z,11.40
2024-01-21T10:34:15.244Z,11.60
2024-01-21T10:36:48.978Z,11.77
2024-01-21T10:39:23.301Z,11.40
2024-01-21T10:41:54.025Z,14.20
2024-01-21T10:44:23.758Z,10.53
2024-01-21T10:46:55.710Z,15.33
2024-01-21T10:49:24.322Z,12.73
2024-01-21T10:51:55.516Z,11.20
2024-01-21T10:54:25.646Z,11.63
2024-01-21T10:56:54.599Z,10.53
2024-01-21T10:59:23.351Z,10.70
2024-01-21T11:01:53.624Z,11.93
2024-01-21T11:04:24.447Z,11.43
2024-01-21T11:06:56.092Z,10.60
2024-01-21T11:09:28.096Z,9.80
2024-01-21T11:11:56.903Z,11.33
2024-01-21T11:14:33.647Z,17.00
2024-01-21T11:17:05.868Z,16.00
2024-01-21T11:19:41.856Z,12.20
2024-01-21T11:22:16.036Z,12.73
2024-01-21T11:24:48.127Z,13.40
2024-01-21T11:27:19.541Z,9.80
2024-01-21T11:29:50.704Z,10.70
2024-01-21T11:32:27.443Z,13.83
2024-01-21T11:34:57.153Z,11.63
2024-01-21T11:37:25.826Z,9.93
2024-01-21T11:39:54.482Z,12.23
2024-01-21T11:42:24.656Z,9.67
2024-01-21T11:44:53.205Z,10.17
2024-01-21T11:47:23.466Z,10.43
2024-01-21T11:49:53.066Z,9.17
2024-01-21T11:52:23.051Z,10.30
2024-01-21T11:54:51.354Z,10.50
2024-01-21T11:57:21.014Z,10.23
2024-01-21T11:59:50.478Z,9.10
2024-01-21T12:02:20.572Z,10.60
2024-01-21T12:04:50.550Z,10.23
2024-01-21T12:07:20.030Z,7.03
2024-01-21T12:09:49.057Z,9.80
2024-01-21T12:12:19.070Z,9.00
2024-01-21T12:14:52.700Z,10.10
2024-01-21T12:17:22.624Z,13.57
2024-01-21T12:19:52.500Z,10.97
2024-01-21T12:22:38.802Z,10.07
2024-01-21T12:25:10.146Z,6.37
2024-01-21T12:27:38.607Z,7.97
2024-01-21T12:30:14.041Z,7.73
2024-01-21T12:32:50.335Z,9.27
2024-01-21T12:35:26.462Z,10.67
2024-01-21T12:37:55.481Z,7.13
2024-01-21T12:40:24.028Z,8.07
2024-01-21T12:42:52.582Z,8.67
2024-01-21T12:45:21.148Z,6.70
2024-01-21T12:47:49.961Z,8.27
2024-01-21T12:50:18.360Z,6.30
2024-01-21T12:52:48.205Z,6.57
2024-01-21T12:55:16.751Z,5.00
2024-01-21T12:57:45.461Z,6.93
2024-01-21T13:00:15.842Z,5.53
2024-01-21T13:02:45.227Z,6.33
2024-01-21T13:05:18.892Z,6.77
2024-01-21T13:07:48.605Z,6.50
2024-01-21T13:10:16.835Z,6.10
2024-01-21T13:12:45.247Z,7.83
2024-01-21T13:15:13.725Z,7.70
2024-01-21T13:17:42.220Z,7.77
2024-01-21T13:20:12.096Z,8.73
2024-01-21T13:22:40.379Z,5.37
2024-01-21T13:25:10.780Z,8.60
2024-01-21T13:27:44.654Z,9.43
2024-01-21T13:30:32.021Z,4.87
2024-01-21T13:33:00.551Z,6.40
2024-01-21T13:35:30.134Z,6.20
2024-01-21T13:37:59.033Z,5.97
2024-01-21T13:40:29.113Z,7.27
2024-01-21T13:42:58.246Z,8.97
2024-01-21T13:45:26.584Z,8.97
2024-01-21T13:47:54.887Z,7.63
2024-01-21T13:50:23.563Z,38.93
2024-01-21T13:52:52.005Z,7.17
2024-01-21T13:55:20.320Z,7.70
2024-01-21T13:57:50.167Z,8.63
2024-01-21T14:00:20.070Z,6.90
2024-01-21T14:02:48.817Z,6.77
2024-01-21T14:05:17.295Z,5.13
2024-01-21T14:07:46.190Z,5.50
2024-01-21T14:10:14.491Z,5.40
2024-01-21T14:12:44.953Z,5.63
2024-01-21T14:15:15.756Z,4.67
2024-01-21T14:17:44.486Z,4.90
2024-01-21T14:20:14.839Z,4.53
2024-01-21T14:22:45.195Z,7.10
2024-01-21T14:25:21.426Z,4.97
2024-01-21T14:27:50.203Z,6.30
2024-01-21T14:30:27.385Z,6.63
2024-01-21T14:32:55.953Z,8.53
2024-01-21T14:35:24.257Z,7.10
2024-01-21T14:37:53.229Z,5.13
2024-01-21T14:40:24.448Z,5.33
2024-01-21T14:42:53.379Z,6.20
2024-01-21T14:45:23.471Z,5.10
2024-01-21T14:47:52.898Z,4.63
2024-01-21T14:50:21.845Z,5.57
2024-01-21T14:52:51.338Z,7.00
2024-01-21T14:55:20.495Z,6.27
2024-01-21T14:57:49.076Z,6.33
2024-01-21T15:00:18.923Z,5.80
2024-01-21T15:02:48.603Z,4.57
2024-01-21T15:05:16.993Z,4.50
2024-01-21T15:07:48.783Z,6.10
2024-01-21T15:10:17.992Z,6.33
2024-01-21T15:12:47.281Z,3.67
2024-01-21T15:15:31.443Z,4.60
2024-01-21T15:18:02.522Z,6.90
2024-01-21T15:20:31.394Z,4.70
2024-01-21T15:23:00.135Z,4.73
2024-01-21T15:25:30.000Z,6.43
2024-01-21T15:27:59.174Z,6.93
2024-01-21T15:30:27.849Z,7.47
2024-01-21T15:32:57.859Z,7.83
2024-01-21T15:35:27.477Z,8.20
2024-01-21T15:37:55.897Z,7.70
2024-01-21T15:40:24.238Z,12.17
2024-01-21T15:42:52.825Z,30.50
2024-01-21T15:45:21.147Z,32.20
2024-01-21T15:47:50.588Z,36.43
2024-01-21T15:50:19.177Z,16.97
2024-01-21T15:52:49.047Z,5.90
2024-01-21T15:55:18.807Z,6.77
2024-01-21T15:57:47.191Z,12.07
2024-01-21T16:00:16.812Z,7.30
2024-01-21T16:02:45.462Z,5.40
2024-01-21T16:05:15.299Z,13.30
2024-01-21T16:07:43.714Z,18.43
2024-01-21T16:10:13.604Z,25.70
2024-01-21T16:12:41.947Z,35.03
2024-01-21T16:15:11.588Z,33.33
2024-01-21T16:17:40.210Z,24.80
2024-01-21T16:20:10.144Z,21.30
2024-01-21T16:22:38.737Z,14.80
2024-01-21T16:25:08.619Z,11.57
2024-01-21T16:27:38.884Z,9.80
2024-01-21T16:30:09.071Z,13.67
2024-01-21T16:32:37.832Z,11.30
2024-01-21T16:35:08.392Z,9.27
2024-01-21T16:37:36.897Z,10.67
2024-01-21T16:40:06.562Z,11.83
2024-01-21T16:42:35.260Z,31.27
2024-01-21T16:45:06.067Z,27.20
2024-01-21T16:47:35.599Z,25.37
2024-01-21T16:50:07.329Z,32.43
2024-01-21T16:52:39.919Z,28.17
2024-01-21T16:55:09.276Z,21.67
2024-01-21T16:57:38.326Z,79.60
2024-01-21T17:00:22.097Z,30.67
2024-01-21T17:02:51.121Z,19.57
2024-01-21T17:05:20.436Z,22.60
2024-01-21T17:07:49.584Z,20.20
2024-01-21T17:10:23.322Z,25.33
2024-01-21T17:12:53.081Z,25.67
2024-01-21T17:15:23.954Z,21.97
2024-01-21T17:17:59.755Z,11.60
2024-01-21T17:20:28.438Z,70.50
2024-01-21T17:22:57.515Z,74.50
2024-01-21T17:25:25.807Z,47.60
2024-01-21T17:27:54.196Z,18.10
2024-01-21T17:30:23.776Z,11.63
2024-01-21T17:32:52.296Z,12.40
2024-01-21T17:35:20.962Z,8.30
2024-01-21T17:37:49.643Z,9.07
2024-01-21T17:40:19.183Z,14.07
2024-01-21T17:42:47.603Z,18.30
2024-01-21T17:45:16.996Z,16.53
2024-01-21T17:47:47.198Z,15.03
2024-01-21T17:50:16.831Z,20.50
2024-01-21T17:52:45.178Z,15.53
2024-01-21T17:55:13.729Z,18.27
2024-01-21T17:57:42.536Z,19.30
2024-01-21T18:00:13.233Z,17.97
2024-01-21T18:02:42.044Z,15.23
2024-01-21T18:05:13.283Z,15.03
2024-01-21T18:07:41.836Z,14.67
2024-01-21T18:10:11.346Z,16.97
2024-01-21T18:12:39.882Z,12.10
2024-01-21T18:15:09.550Z,12.93
2024-01-21T18:17:38.049Z,12.20
2024-01-21T18:20:09.424Z,11.00
2024-01-21T18:22:39.104Z,13.73
2024-01-21T18:25:09.435Z,13.83
2024-01-21T18:27:39.699Z,11.47
2024-01-21T18:30:10.603Z,15.17
2024-01-21T18:32:39.788Z,11.27
2024-01-21T18:35:09.869Z,12.17
2024-01-21T18:37:41.397Z,11.63
2024-01-21T18:40:11.743Z,17.93
2024-01-21T18:42:40.408Z,19.73
2024-01-21T18:45:10.574Z,16.33
2024-01-21T18:47:39.678Z,18.03
2024-01-21T18:50:09.437Z,30.40
2024-01-21T18:52:39.485Z,22.20
2024-01-21T18:55:08.461Z,22.43
2024-01-21T18:57:37.786Z,17.10
2024-01-21T19:00:08.851Z,17.10
2024-01-21T19:02:37.660Z,15.60
2024-01-21T19:05:17.094Z,15.00
2024-01-21T19:07:47.181Z,15.80
2024-01-21T19:10:15.655Z,14.60
2024-01-21T19:12:51.106Z,16.23
2024-01-21T19:15:19.897Z,20.63
2024-01-21T19:17:48.911Z,17.87
2024-01-21T19:20:17.427Z,12.13
2024-01-21T19:22:47.066Z,14.03
2024-01-21T19:25:15.748Z,15.07
2024-01-21T19:27:44.571Z,16.27
2024-01-21T19:30:14.936Z,19.83
2024-01-21T19:32:43.904Z,20.33
2024-01-21T19:35:12.224Z,20.60
2024-01-21T19:37:40.585Z,37.53
2024-01-21T19:40:11.918Z,21.13
2024-01-21T19:42:40.412Z,16.07
2024-01-21T19:45:09.626Z,15.83
2024-01-21T19:47:39.748Z,15.27
2024-01-21T19:50:09.691Z,15.17
2024-01-21T19:52:39.103Z,13.77
2024-01-21T19:55:09.202Z,13.53
2024-01-21T19:57:40.168Z,12.73
2024-01-21T20:00:10.023Z,21.10
2024-01-21T20:02:38.444Z,18.70
2024-01-21T20:05:10.335Z,17.80
2024-01-21T20:07:38.740Z,13.43
2024-01-21T20:10:08.880Z,15.33
2024-01-21T20:12:37.681Z,13.53
2024-01-21T20:15:09.594Z,12.77
2024-01-21T20:17:38.536Z,16.87
2024-01-21T20:20:08.855Z,13.67
2024-01-21T20:22:37.298Z,12.67
2024-01-21T20:25:07.155Z,15.10
2024-01-21T20:27:36.352Z,32.80
2024-01-21T20:30:06.733Z,16.37
2024-01-21T20:32:37.948Z,15.50
2024-01-21T20:35:08.547Z,15.73
2024-01-21T20:37:37.435Z,49.80
2024-01-21T20:40:08.169Z,47.40
2024-01-21T20:42:36.840Z,46.23
2024-01-21T20:45:05.933Z,37.23
2024-01-21T20:47:36.069Z,14.60
2024-01-21T20:50:05.564Z,9.53
2024-01-21T20:52:35.449Z,16.83
2024-01-21T20:55:05.672Z,11.47
2024-01-21T20:57:34.668Z,9.03
2024-01-21T21:00:03.150Z,10.17
2024-01-21T21:02:31.715Z,8.13
2024-01-21T21:05:01.449Z,8.07
2024-01-21T21:07:31.695Z,8.87
2024-01-21T21:10:00.635Z,12.37
2024-01-21T21:12:29.107Z,10.20
2024-01-21T21:14:57.375Z,11.27
2024-01-21T21:17:26.934Z,15.23
2024-01-21T21:19:55.630Z,9.50
2024-01-21T21:22:25.711Z,7.97
2024-01-21T21:24:59.149Z,9.00
2024-01-21T21:27:29.141Z,9.33
2024-01-21T21:29:57.510Z,13.33
2024-01-21T21:32:25.982Z,17.50
2024-01-21T21:34:54.698Z,14.63
2024-01-21T21:37:25.366Z,9.73
2024-01-21T21:39:54.003Z,9.33
2024-01-21T21:42:22.342Z,5.70
2024-01-21T21:44:51.625Z,8.20
2024-01-21T21:47:20.013Z,7.37
2024-01-21T21:49:50.698Z,8.03
2024-01-21T21:52:19.104Z,13.30
2024-01-21T21:54:49.076Z,9.07
2024-01-21T21:57:17.760Z,7.17
2024-01-21T21:59:56.517Z,10.10
2024-01-21T22:02:25.094Z,8.13
2024-01-21T22:04:53.926Z,8.27
2024-01-21T22:07:22.601Z,7.63
2024-01-21T22:09:52.294Z,8.00
2024-01-21T22:12:21.446Z,6.83
2024-01-21T22:14:50.518Z,8.93
2024-01-21T22:17:18.924Z,8.43
2024-01-21T22:19:46.860Z,7.63
2024-01-21T22:22:17.665Z,6.00
2024-01-21T22:24:46.984Z,6.07
2024-01-21T22:27:18.775Z,5.60
2024-01-21T22:29:47.717Z,7.27
2024-01-21T22:32:16.629Z,4.63
2024-01-21T22:34:45.205Z,6.37
2024-01-21T22:37:14.371Z,5.27
2024-01-21T22:39:43.129Z,5.70
2024-01-21T22:42:11.775Z,4.40
2024-01-21T22:44:41.608Z,4.80
2024-01-21T22:47:09.966Z,5.07
2024-01-21T22:49:40.309Z,5.90
2024-01-21T22:52:09.149Z,6.03
2024-01-21T22:54:38.173Z,4.93
2024-01-21T22:57:07.133Z,5.37
2024-01-21T22:59:35.832Z,7.30
2024-01-21T23:02:06.320Z,6.37
2024-01-21T23:04:34.980Z,5.13
2024-01-21T23:07:10.651Z,4.57
2024-01-21T23:09:40.568Z,5.40
2024-01-21T23:12:09.254Z,4.77
2024-01-21T23:14:37.911Z,4.57
2024-01-21T23:17:08.155Z,6.27
2024-01-21T23:19:36.503Z,4.27
2024-01-21T23:22:05.048Z,5.07
2024-01-21T23:24:33.560Z,4.10
2024-01-21T23:27:02.245Z,3.97
2024-01-21T23:29:30.639Z,5.23
2024-01-21T23:31:59.118Z,4.30
2024-01-21T23:34:28.872Z,4.83
2024-01-21T23:36:57.284Z,4.60
2024-01-21T23:39:25.854Z,5.00
2024-01-21T23:41:54.800Z,6.60
2024-01-21T23:44:23.310Z,6.07
2024-01-21T23:46:51.919Z,6.13
2024-01-21T23:49:20.502Z,3.77
2024-01-21T23:51:50.502Z,4.40
2024-01-21T23:54:18.768Z,5.37
2024-01-21T23:56:47.861Z,3.10
2024-01-21T23:59:17.127Z,4.00
